00:49 Bike Kundl - Schwaz
Ort Schwaz Datum 13.07.2010 17:43:15
Kategorie MTB
Distanz 26,68 Kilometer Steigung 34,7 Meter Gefälle -3,3 Meter
Gesamt Zeit 00:49:17 Aktiv 00:49:17 Pause 00:00:00
Durchs. Tempo 32,5 km/h Tempo max. 41,1 km/h Tempo min. 9,0 km/h
Kalorien 0 Durchs. HF 163 BPM HF max. 183 BPM
Wetter 28 °C ChanceRain
Ausrüstung Schwalbe - Racing Ralph hinten
Schwalbe - Racing Ralph vorne
Shimano - HG-93 XT
Specialized - BG S-Works MTB
Specialized - Stumpjumper Comp
SwissStop - Disc17 Avid Juicy
Notiz Kundl - Schwaz ... bis Zillertal Rueckenwind, dann tw. Gegenwind und Regen ... Vollgas, um vor dem Regen anzukommen ... garmin connect
Splits
Distanz (km) Gesamt Zeit Split Zeit Split Tempo Split Tempo Höhenprofil (m)
1,00 00:01:46 00:01:46 00:01:46 34,0 -10,00
2,00 00:03:36 00:01:50 00:01:50 32,7 0,00
3,00 00:05:22 00:01:46 00:01:46 34,0 0,00
4,00 00:07:06 00:01:44 00:01:44 34,6 0,00
5,00 00:08:47 00:01:41 00:01:41 35,6 0,00
6,00 00:10:24 00:01:37 00:01:37 37,1 1,00
7,00 00:12:05 00:01:41 00:01:41 35,6 -1,00
8,00 00:13:52 00:01:47 00:01:47 33,6 2,71
9,00 00:15:34 00:01:42 00:01:42 35,3 7,29
10,00 00:17:23 00:01:49 00:01:49 33,0 -6,94
11,00 00:19:16 00:01:53 00:01:53 31,9 0,94
12,00 00:21:01 00:01:45 00:01:45 34,3 1,00
13,00 00:22:48 00:01:47 00:01:47 33,6 1,33
14,00 00:24:43 00:01:55 00:01:55 31,3 0,67
15,00 00:26:58 00:02:15 00:02:15 26,7 3,00
16,00 00:28:49 00:01:51 00:01:51 32,4 -0,82
17,00 00:30:36 00:01:47 00:01:47 33,6 0,82
18,00 00:32:24 00:01:48 00:01:48 33,3 1,00
19,00 00:34:40 00:02:16 00:02:16 26,5 16,97
20,00 00:37:19 00:02:39 00:02:39 22,6 10,54
21,00 00:38:57 00:01:38 00:01:38 36,7 -18,09
22,00 00:40:38 00:01:41 00:01:41 35,6 0,77
23,00 00:42:41 00:02:03 00:02:03 29,3 16,23
24,00 00:44:17 00:01:36 00:01:36 37,5 -8,76
25,00 00:46:06 00:01:49 00:01:49 33,0 0,34
26,00 00:48:00 00:01:54 00:01:54 31,6 0,00